Time;durP1;ratioP1;P1;durP2;ratioP2;P2;SDS_P1;SDS_P2;PMS_P1;PMS_P2;Temp;Humidity;BMP_temperature;BMP_pressure;BME280_temperature;BME280_humidity;BME280_pressure;Samples;Min_cycle;Max_cycle;Signal;HPM_P1;HPM_P2
2020/12/27 00:00:48;;;;;;;6.25;4.70;;;;;;;2.76;71.38;98687.22;6060782;23;20207;-83
2020/12/27 00:03:17;;;;;;;7.22;3.92;;;;;;;2.91;69.95;98677.75;6073872;23;20211;-86
2020/12/27 00:05:44;;;;;;;5.68;4.20;;;;;;;2.89;67.95;98672.50;6073569;23;20537;-85
2020/12/27 00:08:11;;;;;;;5.70;3.60;;;;;;;2.90;68.32;98657.44;6089482;23;20176;-84
2020/12/27 00:10:37;;;;;;;5.40;4.10;;;;;;;2.89;69.01;98656.56;6095948;23;20610;-86
2020/12/27 00:13:07;;;;;;;6.93;4.03;;;;;;;2.91;68.32;98654.75;6067678;23;20226;-89
2020/12/27 00:15:37;;;;;;;5.10;3.42;;;;;;;2.57;68.10;98638.47;6067230;23;20214;-86
2020/12/27 00:18:04;;;;;;;5.90;3.75;;;;;;;2.62;69.59;98646.25;6021803;23;20715;-87
2020/12/27 00:20:30;;;;;;;5.18;3.35;;;;;;;2.53;69.43;98646.63;6048065;23;20207;-88
2020/12/27 00:23:08;;;;;;;5.30;2.40;;;;;;;2.49;69.17;98629.09;6048922;23;20167;-88
2020/12/27 00:25:40;;;;;;;5.55;4.22;;;;;;;2.59;69.99;98626.03;6096270;23;20274;-89
2020/12/27 00:29:06;;;;;;;5.63;3.75;;;;;;;2.63;69.44;98624.97;6029522;23;21069;-88
2020/12/27 00:32:01;;;;;;;6.50;4.18;;;;;;;2.67;69.19;98613.28;6100936;23;20210;-88
2020/12/27 00:35:05;;;;;;;3.95;3.28;;;;;;;2.58;69.80;98618.13;6075450;23;20152;-87
2020/12/27 00:37:41;;;;;;;4.10;3.70;;;;;;;2.58;68.72;98608.34;6094302;23;20291;-89
2020/12/27 00:40:11;;;;;;;3.60;3.30;;;;;;;2.47;69.13;98600.00;6067883;23;20294;-87
2020/12/27 00:42:37;;;;;;;5.00;3.85;;;;;;;2.43;68.47;98603.69;6072375;23;20235;-87
2020/12/27 00:45:09;;;;;;;4.30;3.05;;;;;;;2.37;69.06;98588.03;6069018;23;20216;-86
2020/12/27 00:47:37;;;;;;;4.95;4.43;;;;;;;2.54;70.40;98572.28;6110269;23;20292;-88
2020/12/27 00:50:03;;;;;;;5.05;3.13;;;;;;;2.62;69.90;98567.50;6043888;23;20204;-88
2020/12/27 00:52:30;;;;;;;5.03;3.63;;;;;;;2.64;68.42;98560.34;6052663;23;20547;-87
2020/12/27 00:54:56;;;;;;;6.50;4.53;;;;;;;2.71;71.88;98545.03;6068347;23;20206;-90
2020/12/27 00:57:22;;;;;;;5.07;3.50;;;;;;;2.71;69.13;98529.09;6067910;23;20279;-90
2020/12/27 00:59:48;;;;;;;3.70;3.15;;;;;;;2.58;68.42;98523.44;6052303;23;20287;-89
2020/12/27 01:02:18;;;;;;;4.82;3.83;;;;;;;2.49;69.57;98517.66;6090138;23;20184;-88
2020/12/27 01:04:49;;;;;;;6.63;3.72;;;;;;;2.36;68.74;98508.50;6082992;23;20223;-89
2020/12/27 01:07:23;;;;;;;4.38;3.17;;;;;;;2.38;68.93;98504.88;6093637;23;20215;-88
2020/12/27 01:10:03;;;;;;;4.32;3.42;;;;;;;2.28;68.35;98485.00;6044706;23;20216;-89
2020/12/27 01:12:33;;;;;;;5.22;3.15;;;;;;;2.20;68.53;98487.09;6095464;23;20204;-86
2020/12/27 01:15:00;;;;;;;5.35;3.67;;;;;;;2.12;69.93;98483.06;6062256;23;20200;-87
2020/12/27 01:17:49;;;;;;;4.28;3.25;;;;;;;2.20;69.55;98489.75;6085485;23;20222;-88
2020/12/27 01:20:15;;;;;;;3.90;3.50;;;;;;;2.23;70.43;98468.41;6063071;23;20226;-86
2020/12/27 01:22:41;;;;;;;4.65;3.38;;;;;;;2.18;69.24;98459.78;6064602;23;20167;-87
2020/12/27 01:25:16;;;;;;;5.57;3.60;;;;;;;2.16;70.72;98453.69;6061743;23;20203;-88
2020/12/27 01:27:45;;;;;;;3.97;3.35;;;;;;;2.29;71.54;98446.94;6063404;23;20226;-85
2020/12/27 01:30:12;;;;;;;4.38;3.03;;;;;;;2.31;69.06;98439.75;6043129;23;20212;-85
2020/12/27 01:32:46;;;;;;;4.45;3.50;;;;;;;2.28;69.48;98429.28;6065034;23;20212;-87
2020/12/27 01:35:30;;;;;;;3.60;3.30;;;;;;;2.20;69.04;98423.44;6063093;23;20214;-86
2020/12/27 01:37:56;;;;;;;3.97;3.38;;;;;;;2.20;69.84;98415.47;6014690;23;20235;-86
2020/12/27 01:40:23;;;;;;;4.80;3.92;;;;;;;2.14;69.39;98405.19;6044258;23;20177;-87
2020/12/27 01:42:59;;;;;;;5.57;3.45;;;;;;;2.12;68.93;98417.63;6018497;23;20212;-86
2020/12/27 01:45:27;;;;;;;4.65;3.30;;;;;;;2.13;69.99;98410.53;6029052;23;20212;-86
2020/12/27 01:48:12;;;;;;;4.55;3.05;;;;;;;2.22;70.93;98396.88;6050780;23;20243;-85
2020/12/27 01:50:40;;;;;;;5.22;3.22;;;;;;;2.22;69.96;98392.44;6032584;23;20208;-86
2020/12/27 01:53:07;;;;;;;4.30;2.88;;;;;;;2.17;68.90;98381.16;6023757;23;20224;-87
2020/12/27 01:55:37;;;;;;;3.70;3.25;;;;;;;2.11;69.87;98384.06;6024567;23;20165;-87
2020/12/27 01:58:16;;;;;;;4.55;3.20;;;;;;;2.16;69.22;98379.44;6013861;23;20573;-87
2020/12/27 02:00:54;;;;;;;3.97;2.95;;;;;;;2.12;69.11;98374.34;6040410;23;20208;-86
2020/12/27 02:03:37;;;;;;;4.35;3.28;;;;;;;2.06;70.29;98364.84;6058623;23;20204;-86
2020/12/27 02:06:14;;;;;;;5.45;3.60;;;;;;;2.13;69.83;98355.69;6023567;23;20247;-87
2020/12/27 02:08:44;;;;;;;4.13;3.13;;;;;;;2.18;68.82;98348.41;6020626;23;20212;-86
2020/12/27 02:11:35;;;;;;;7.75;3.22;;;;;;;2.15;68.53;98340.59;6022406;23;20205;-88
2020/12/27 02:14:01;;;;;;;5.13;2.70;;;;;;;2.11;69.22;98346.97;6062143;23;20177;-87
2020/12/27 02:16:33;;;;;;;3.40;3.10;;;;;;;2.05;69.45;98331.31;6024720;23;20241;-87
2020/12/27 02:19:22;;;;;;;3.33;2.50;;;;;;;2.03;69.61;98327.88;6027155;23;20214;-87
2020/12/27 02:21:59;;;;;;;4.88;3.15;;;;;;;1.97;68.74;98317.56;6030538;23;20212;-87
2020/12/27 02:24:49;;;;;;;3.72;2.95;;;;;;;2.03;69.24;98325.22;6057523;23;20700;-87
2020/12/27 02:27:20;;;;;;;3.63;2.28;;;;;;;2.09;69.45;98308.19;6036689;23;20220;-87
2020/12/27 02:29:49;;;;;;;2.60;2.20;;;;;;;2.13;68.69;98300.00;5987197;23;20225;-86
2020/12/27 02:32:17;;;;;;;3.47;3.05;;;;;;;2.11;70.12;98291.28;6050222;23;20199;-87
2020/12/27 02:34:44;;;;;;;3.47;2.40;;;;;;;2.04;68.29;98295.13;6041242;23;20169;-87
2020/12/27 02:37:11;;;;;;;2.92;2.63;;;;;;;2.12;70.52;98279.72;6035856;23;20216;-87
2020/12/27 02:39:51;;;;;;;5.47;2.88;;;;;;;2.26;69.40;98272.00;6051257;22;20204;-87
2020/12/27 02:42:17;;;;;;;3.53;2.70;;;;;;;2.16;67.53;98273.38;6035108;23;20219;-87
2020/12/27 02:45:10;;;;;;;3.65;2.40;;;;;;;2.13;68.63;98262.88;6027353;23;20213;-87
2020/12/27 02:47:54;;;;;;;3.33;2.65;;;;;;;2.01;67.75;98271.41;6083163;23;20700;-86
2020/12/27 02:50:33;;;;;;;3.42;2.70;;;;;;;2.04;70.22;98243.88;6080393;23;20228;-87
2020/12/27 02:53:00;;;;;;;3.08;2.15;;;;;;;2.06;67.80;98250.84;6059988;23;20172;-87
2020/12/27 02:55:26;;;;;;;3.78;2.25;;;;;;;2.04;67.93;98234.16;6019444;23;20169;-86
2020/12/27 02:57:54;;;;;;;3.97;2.22;;;;;;;2.09;67.83;98221.56;6072966;23;20218;-86
2020/12/27 03:00:22;;;;;;;3.80;2.60;;;;;;;1.95;68.75;98224.00;6087993;23;20228;-86
2020/12/27 03:03:10;;;;;;;5.13;3.35;;;;;;;2.06;69.58;98219.03;6093437;23;20276;-87
2020/12/27 03:05:49;;;;;;;4.85;2.40;;;;;;;2.07;68.69;98199.53;6072174;23;20202;-88
2020/12/27 03:08:17;;;;;;;4.28;2.67;;;;;;;2.13;69.15;98183.34;6046751;23;20232;-89
2020/12/27 03:11:07;;;;;;;2.17;1.98;;;;;;;2.11;68.50;98161.34;6077649;23;20170;-88
2020/12/27 03:13:34;;;;;;;3.80;2.72;;;;;;;2.19;68.88;98158.34;6102547;23;20259;-88
2020/12/27 03:16:03;;;;;;;2.17;1.65;;;;;;;2.14;68.44;98145.31;6059287;23;20199;-87
2020/12/27 03:18:54;;;;;;;6.20;2.75;;;;;;;2.10;69.11;98132.25;6063251;23;20209;-88
2020/12/27 03:21:52;;;;;;;2.85;2.35;;;;;;;2.17;68.26;98128.38;6079583;23;20317;-88
2020/12/27 03:24:44;;;;;;;3.53;2.20;;;;;;;2.06;67.20;98126.25;6076710;23;20192;-88
2020/12/27 03:27:20;;;;;;;2.47;2.28;;;;;;;2.18;68.84;98108.91;6031517;23;20195;-89
2020/12/27 03:29:59;;;;;;;3.08;2.20;;;;;;;2.22;68.41;98110.47;6061174;23;20195;-87
2020/12/27 03:32:33;;;;;;;4.82;2.10;;;;;;;2.22;68.44;98082.16;6013406;23;20219;-88
2020/12/27 03:35:04;;;;;;;3.25;2.60;;;;;;;2.26;67.84;98091.66;6056890;23;20169;-88
2020/12/27 03:37:35;;;;;;;4.07;2.67;;;;;;;2.27;68.78;98084.59;6049882;23;20209;-88
2020/12/27 03:40:18;;;;;;;2.45;2.20;;;;;;;2.36;67.18;98087.63;6083918;23;20222;-87
2020/12/27 03:42:57;;;;;;;4.25;2.67;;;;;;;2.32;67.35;98080.75;6089260;23;20207;-85
2020/12/27 03:45:32;;;;;;;2.53;1.85;;;;;;;2.15;67.38;98070.16;6109681;23;20211;-87
2020/12/27 03:48:22;;;;;;;2.40;2.20;;;;;;;2.31;67.96;98068.44;6064214;23;20187;-88
2020/12/27 03:50:57;;;;;;;3.63;2.30;;;;;;;2.41;66.95;98056.44;6086314;23;20203;-88
2020/12/27 03:53:25;;;;;;;2.38;1.88;;;;;;;2.27;66.61;98037.72;6056851;23;20200;-87
2020/12/27 03:56:21;;;;;;;2.45;2.10;;;;;;;2.20;67.97;98038.94;6030966;23;20221;-86
2020/12/27 03:59:05;;;;;;;2.50;2.30;;;;;;;2.29;68.40;98027.88;6068116;23;20148;-86
2020/12/27 04:01:52;;;;;;;5.55;2.80;;;;;;;2.33;69.39;98007.38;6077046;23;20359;-87
2020/12/27 04:04:20;;;;;;;2.83;2.45;;;;;;;2.44;66.35;98015.66;6086592;23;20676;-85
2020/12/27 04:07:03;;;;;;;2.50;1.90;;;;;;;2.37;66.63;98004.47;6111209;23;20221;-88
2020/12/27 04:09:40;;;;;;;3.85;2.50;;;;;;;2.37;68.05;97993.88;6059691;23;20208;-87
2020/12/27 04:12:13;;;;;;;2.88;2.30;;;;;;;2.48;68.08;97980.03;6067299;23;20211;-87
2020/12/27 04:14:42;;;;;;;2.80;2.50;;;;;;;2.55;66.70;97976.13;6054879;23;20211;-88
2020/12/27 04:17:10;;;;;;;4.57;2.60;;;;;;;2.62;66.27;97967.78;6079854;23;20191;-88
2020/12/27 04:19:47;;;;;;;4.32;2.80;;;;;;;2.48;66.39;97962.34;6057549;23;20171;-87
2020/12/27 04:22:16;;;;;;;3.67;2.45;;;;;;;2.49;67.69;97956.09;6054108;23;20219;-86
2020/12/27 04:24:55;;;;;;;3.35;2.13;;;;;;;2.52;66.50;97952.44;6101533;23;20207;-87
2020/12/27 04:27:24;;;;;;;7.32;2.97;;;;;;;2.63;69.04;97932.34;6085233;23;20596;-89
2020/12/27 04:29:51;;;;;;;4.38;2.75;;;;;;;2.66;68.16;97931.34;6039251;23;20211;-88
2020/12/27 04:32:29;;;;;;;4.00;2.58;;;;;;;2.59;66.63;97919.34;6059012;23;20207;-89
2020/12/27 04:35:13;;;;;;;4.00;3.20;;;;;;;2.71;69.68;97900.09;6069051;23;20217;-88
2020/12/27 04:37:42;;;;;;;3.00;2.50;;;;;;;2.52;67.23;97896.72;6082393;23;20250;-87
2020/12/27 04:40:16;;;;;;;3.67;2.67;;;;;;;2.59;66.73;97898.97;6076666;23;20593;-88
2020/12/27 04:42:50;;;;;;;4.30;3.33;;;;;;;2.66;66.44;97895.06;6048417;23;20266;-88
2020/12/27 04:45:29;;;;;;;4.63;3.13;;;;;;;2.52;66.84;97873.69;6060796;23;20540;-88
2020/12/27 04:48:08;;;;;;;4.30;2.75;;;;;;;2.65;66.70;97879.22;6054107;23;20207;-88
2020/12/27 04:50:54;;;;;;;2.83;2.53;;;;;;;2.54;66.16;97869.19;6065498;23;20704;-88
2020/12/27 04:53:21;;;;;;;4.35;3.38;;;;;;;2.48;66.98;97860.69;6106507;23;20547;-89
2020/12/27 04:55:52;;;;;;;4.50;2.67;;;;;;;2.50;66.91;97856.16;6085044;23;20187;-88
2020/12/27 04:58:33;;;;;;;5.55;3.15;;;;;;;2.32;66.91;97839.41;6101094;23;20214;-88
2020/12/27 05:01:08;;;;;;;4.05;3.10;;;;;;;2.40;69.08;97828.41;6080095;23;20255;-88
2020/12/27 05:03:56;;;;;;;5.32;3.58;;;;;;;2.34;69.50;97824.31;6085237;23;20450;-88
2020/12/27 05:06:29;;;;;;;4.30;3.55;;;;;;;2.49;69.31;97810.19;6084237;23;20195;-86
2020/12/27 05:09:04;;;;;;;5.47;3.40;;;;;;;2.48;68.07;97797.88;6093341;23;20214;-86
2020/12/27 05:11:34;;;;;;;4.95;2.95;;;;;;;2.39;67.35;97793.06;6074555;23;20210;-87
2020/12/27 05:14:15;;;;;;;4.55;3.42;;;;;;;2.41;68.56;97791.19;6068635;23;20207;-88
2020/12/27 05:16:52;;;;;;;4.70;3.13;;;;;;;2.52;67.81;97780.84;6031378;23;20195;-87
2020/12/27 05:19:22;;;;;;;3.60;3.30;;;;;;;2.72;70.96;97762.03;6104862;23;20238;-88
2020/12/27 05:21:48;;;;;;;3.85;3.20;;;;;;;2.62;68.94;97766.13;6030085;23;20239;-87
2020/12/27 05:24:38;;;;;;;5.60;3.45;;;;;;;2.68;67.73;97763.16;6064468;23;20231;-87
2020/12/27 05:27:25;;;;;;;5.45;3.60;;;;;;;2.49;69.05;97765.09;6072441;23;20247;-87
2020/12/27 05:30:28;;;;;;;4.63;3.45;;;;;;;2.39;69.16;97747.97;6061110;23;20207;-87
2020/12/27 05:33:18;;;;;;;3.85;3.05;;;;;;;2.44;69.02;97743.28;6081750;23;20960;-87
2020/12/27 05:36:04;;;;;;;4.13;3.40;;;;;;;2.34;70.72;97728.81;6101022;23;20239;-86
2020/12/27 05:38:38;;;;;;;5.47;3.60;;;;;;;2.24;69.94;97729.41;6097263;23;20210;-87
2020/12/27 05:41:25;;;;;;;5.55;3.58;;;;;;;2.12;69.76;97722.13;6086340;23;20214;-87
2020/12/27 05:44:03;;;;;;;7.18;4.00;;;;;;;2.16;69.96;97719.22;6060961;23;20734;-87
2020/12/27 05:46:31;;;;;;;5.35;3.67;;;;;;;2.27;70.39;97722.16;6047272;23;20191;-87
2020/12/27 05:48:59;;;;;;;5.07;3.90;;;;;;;2.29;68.48;97714.09;6095618;23;20211;-87
2020/12/27 05:51:26;;;;;;;4.43;3.25;;;;;;;2.18;68.05;97716.50;6066007;23;20219;-86
2020/12/27 05:53:54;;;;;;;5.72;3.95;;;;;;;2.08;68.97;97704.66;6045795;23;20203;-87
2020/12/27 05:56:37;;;;;;;5.53;4.75;;;;;;;2.19;71.95;97689.88;6059519;23;20211;-87
2020/12/27 05:59:05;;;;;;;5.60;3.80;;;;;;;2.17;69.27;97699.72;6045194;23;20159;-87
2020/12/27 06:01:35;;;;;;;6.70;3.80;;;;;;;2.03;69.52;97690.81;6074257;23;20227;-87
2020/12/27 06:04:37;;;;;;;9.45;4.07;;;;;;;2.16;68.77;97682.09;6047736;23;20594;-88
2020/12/27 06:07:06;;;;;;;5.70;3.67;;;;;;;2.21;69.64;97665.94;6095398;23;20211;-87
2020/12/27 06:09:54;;;;;;;6.18;4.78;;;;;;;2.18;69.21;97666.13;6051992;23;20210;-87
2020/12/27 06:12:44;;;;;;;5.57;3.72;;;;;;;2.28;69.82;97664.66;6073041;23;20233;-87
2020/12/27 06:15:22;;;;;;;9.43;3.92;;;;;;;2.36;70.09;97657.13;6110245;23;20209;-87
2020/12/27 06:18:15;;;;;;;4.82;3.60;;;;;;;2.26;68.59;97666.53;6100417;23;20205;-87
2020/12/27 06:21:07;;;;;;;5.35;4.07;;;;;;;2.37;69.84;97654.38;6100994;23;20211;-87
2020/12/27 06:23:37;;;;;;;5.43;3.90;;;;;;;2.34;69.20;97649.28;6078213;23;20270;-88
2020/12/27 06:26:06;;;;;;;4.20;3.60;;;;;;;2.30;69.21;97646.84;6096596;23;20282;-87
2020/12/27 06:28:34;;;;;;;5.30;4.05;;;;;;;2.28;70.88;97646.09;6048859;23;20182;-87
2020/12/27 06:31:13;;;;;;;5.35;3.92;;;;;;;2.22;70.68;97628.75;6078308;23;20261;-87
2020/12/27 06:33:52;;;;;;;5.70;3.17;;;;;;;2.12;70.68;97616.94;6077694;22;20242;-87
2020/12/27 06:36:50;;;;;;;6.43;4.60;;;;;;;2.24;72.34;97608.28;6058352;23;20290;-86
2020/12/27 06:39:28;;;;;;;4.15;3.75;;;;;;;2.20;72.36;97588.19;6095433;23;20798;-87
2020/12/27 06:42:18;;;;;;;4.75;4.28;;;;;;;2.20;71.15;97593.47;6071952;23;20279;-87
2020/12/27 06:44:53;;;;;;;5.78;3.58;;;;;;;2.40;72.59;97600.31;6077276;23;20672;-87
2020/12/27 06:47:53;;;;;;;5.82;4.05;;;;;;;2.45;70.52;97579.69;6106977;23;20214;-87
2020/12/27 06:50:28;;;;;;;5.35;4.00;;;;;;;2.39;71.70;97574.75;6040234;23;20215;-87
2020/12/27 06:53:10;;;;;;;5.28;3.90;;;;;;;2.23;71.85;97581.84;6069291;23;20652;-87
2020/12/27 06:55:54;;;;;;;4.53;3.78;;;;;;;2.30;72.44;97573.47;6051400;23;20187;-87
2020/12/27 06:58:28;;;;;;;6.10;4.00;;;;;;;2.36;71.13;97561.66;6077499;23;20269;-86
2020/12/27 07:01:20;;;;;;;5.28;4.10;;;;;;;2.30;71.49;97557.56;6024751;23;20211;-86
2020/12/27 07:03:46;;;;;;;6.03;3.85;;;;;;;2.36;72.06;97543.94;6069250;23;20237;-86
2020/12/27 07:06:22;;;;;;;7.45;4.57;;;;;;;2.31;70.57;97543.34;6073247;23;20215;-86
2020/12/27 07:09:03;;;;;;;5.35;3.85;;;;;;;2.39;73.49;97524.34;6079239;23;20739;-87
2020/12/27 07:11:31;;;;;;;5.68;4.47;;;;;;;2.35;72.01;97534.28;6043204;23;20207;-86
2020/12/27 07:13:58;;;;;;;6.32;4.82;;;;;;;2.47;73.74;97528.28;6048337;23;20656;-86
2020/12/27 07:16:40;;;;;;;5.70;4.07;;;;;;;2.39;71.36;97532.31;6076928;23;20278;-87
2020/12/27 07:19:06;;;;;;;5.53;4.18;;;;;;;2.46;73.34;97523.91;6080319;23;20207;-85
2020/12/27 07:21:36;;;;;;;5.35;4.72;;;;;;;2.46;71.90;97523.03;6115497;23;20205;-84
2020/12/27 07:24:05;;;;;;;5.60;3.80;;;;;;;2.44;72.74;97517.81;6095716;23;20192;-85
2020/12/27 07:26:32;;;;;;;4.70;3.88;;;;;;;2.39;72.20;97506.63;6091875;23;20211;-85
2020/12/27 07:29:06;;;;;;;5.45;4.40;;;;;;;2.31;72.25;97510.69;6095327;23;20155;-85
2020/12/27 07:31:59;;;;;;;5.07;4.47;;;;;;;2.35;73.34;97496.28;6095986;23;20179;-85
2020/12/27 07:34:27;;;;;;;6.60;4.35;;;;;;;2.38;73.47;97490.81;6092582;23;20218;-85
2020/12/27 07:37:12;;;;;;;7.20;4.80;;;;;;;2.38;74.78;97480.22;6086257;23;20528;-86
2020/12/27 07:39:56;;;;;;;4.28;3.88;;;;;;;2.45;75.58;97463.00;6092140;23;20231;-86
2020/12/27 07:42:27;;;;;;;5.22;3.90;;;;;;;2.37;74.97;97460.78;6064940;23;20259;-85
2020/12/27 07:44:59;;;;;;;4.85;4.10;;;;;;;2.43;74.50;97457.78;6095134;23;20214;-86
2020/12/27 07:47:26;;;;;;;5.65;3.78;;;;;;;2.72;75.72;97437.44;6072630;23;20206;-85
2020/12/27 07:50:14;;;;;;;9.88;5.15;;;;;;;2.80;74.13;97430.72;6097505;23;20167;-85
2020/12/27 07:52:51;;;;;;;6.03;4.40;;;;;;;2.84;73.34;97426.06;6097820;23;20168;-86
2020/12/27 07:55:21;;;;;;;5.45;4.35;;;;;;;2.82;72.94;97417.38;6066096;23;20196;-84
2020/12/27 07:57:48;;;;;;;6.63;4.18;;;;;;;2.81;73.26;97399.72;6088137;23;20259;-85
2020/12/27 08:00:20;;;;;;;5.78;3.85;;;;;;;2.87;75.04;97389.59;6096367;23;20215;-85
2020/12/27 08:02:47;;;;;;;4.95;3.90;;;;;;;3.03;73.16;97397.44;6094975;23;20186;-83
2020/12/27 08:05:13;;;;;;;5.03;3.47;;;;;;;2.97;73.43;97385.38;6095516;23;20207;-85
2020/12/27 08:07:39;;;;;;;4.35;3.13;;;;;;;2.95;71.93;97376.66;6071137;23;20176;-84
2020/12/27 08:10:32;;;;;;;7.28;4.30;;;;;;;3.00;72.74;97379.91;6094793;23;20191;-85
2020/12/27 08:13:01;;;;;;;3.72;3.35;;;;;;;2.89;73.59;97355.00;6090129;23;20227;-85
2020/12/27 08:15:29;;;;;;;7.35;3.65;;;;;;;2.94;73.42;97347.56;6093257;23;20207;-85
2020/12/27 08:18:10;;;;;;;6.40;4.45;;;;;;;2.87;73.60;97328.53;6052285;23;20294;-87
2020/12/27 08:20:47;;;;;;;3.63;2.65;;;;;;;2.77;73.02;97319.44;6057681;23;20203;-86
2020/12/27 08:23:25;;;;;;;;;;;;;;;;;;;;;
2020/12/27 08:26:05;;;;;;;5.30;3.20;;;;;;;3.08;73.98;97308.56;6104294;23;20657;-86
2020/12/27 08:28:35;;;;;;;4.53;3.38;;;;;;;3.07;72.46;97303.34;6107779;23;20182;-86
2020/12/27 08:31:01;;;;;;;3.72;3.30;;;;;;;3.11;72.63;97296.91;6058753;23;20268;-86
2020/12/27 08:33:27;;;;;;;7.22;4.03;;;;;;;3.04;72.79;97293.81;6053067;23;20530;-86
2020/12/27 08:35:55;;;;;;;4.65;3.28;;;;;;;3.16;72.62;97285.03;6076933;23;20291;-87
2020/12/27 08:38:44;;;;;;;5.93;3.80;;;;;;;3.34;71.40;97289.13;6053007;23;20211;-87
2020/12/27 08:41:31;;;;;;;4.35;2.90;;;;;;;3.45;72.23;97291.94;6087089;23;20219;-87
2020/12/27 08:44:23;;;;;;;3.70;2.72;;;;;;;3.45;71.12;97291.94;6072492;23;20183;-87
2020/12/27 08:47:10;;;;;;;4.38;3.00;;;;;;;3.52;72.23;97282.59;6075516;23;20251;-88
2020/12/27 08:49:45;;;;;;;4.50;2.80;;;;;;;3.53;72.03;97283.47;6052467;23;20236;-87
2020/12/27 08:52:14;;;;;;;3.45;2.70;;;;;;;3.52;70.75;97265.81;6057156;23;20250;-86
2020/12/27 08:54:41;;;;;;;4.40;3.40;;;;;;;3.79;71.42;97259.47;6053695;23;20195;-86
2020/12/27 08:57:11;;;;;;;3.38;3.08;;;;;;;3.86;69.84;97244.81;6048013;23;20219;-87
2020/12/27 08:59:37;;;;;;;4.80;3.72;;;;;;;3.83;70.10;97238.84;6091084;23;20215;-86
2020/12/27 09:02:10;;;;;;;3.60;2.80;;;;;;;3.95;70.32;97238.88;6044998;23;20617;-87
2020/12/27 09:04:42;;;;;;;2.70;2.40;;;;;;;4.06;69.12;97225.69;6057893;23;20184;-85
2020/12/27 09:07:15;;;;;;;8.80;3.08;;;;;;;4.01;69.61;97218.97;6086578;23;20215;-86
2020/12/27 09:09:41;;;;;;;3.47;3.05;;;;;;;3.93;69.19;97200.88;6042910;23;20231;-86
2020/12/27 09:12:10;;;;;;;3.80;3.05;;;;;;;3.96;69.91;97183.88;6042398;23;20469;-86
2020/12/27 09:14:37;;;;;;;3.58;3.28;;;;;;;3.94;68.70;97173.38;6042636;23;20657;-88
2020/12/27 09:17:06;;;;;;;4.20;2.65;;;;;;;4.05;69.63;97184.06;6043368;23;20247;-87
2020/12/27 09:19:34;;;;;;;3.13;2.65;;;;;;;4.18;68.31;97176.94;6047542;23;20642;-85
2020/12/27 09:22:03;;;;;;;3.38;2.75;;;;;;;4.30;68.70;97181.38;6068799;23;20208;-88
2020/12/27 09:24:29;;;;;;;3.08;2.55;;;;;;;4.20;68.35;97161.72;6092925;23;20211;-86
2020/12/27 09:27:09;;;;;;;2.60;2.22;;;;;;;4.20;69.02;97153.75;6041742;23;20797;-87
2020/12/27 09:29:38;;;;;;;3.03;2.50;;;;;;;4.26;67.79;97153.31;6044174;23;20301;-86
2020/12/27 09:32:12;;;;;;;2.80;2.30;;;;;;;4.46;67.11;97141.22;6040948;23;20192;-85
2020/12/27 09:34:40;;;;;;;2.85;2.35;;;;;;;4.55;67.71;97129.94;6069339;23;20168;-87
2020/12/27 09:37:17;;;;;;;3.78;3.00;;;;;;;4.75;66.10;97123.97;6040723;23;20684;-87
2020/12/27 09:39:54;;;;;;;3.70;2.70;;;;;;;4.81;66.98;97119.03;6092515;23;20246;-87
2020/12/27 09:42:25;;;;;;;3.10;2.72;;;;;;;4.87;66.52;97101.78;6070964;23;20208;-86
2020/12/27 09:44:52;;;;;;;2.90;2.28;;;;;;;4.85;66.05;97109.00;6073968;23;20715;-87
2020/12/27 09:47:27;;;;;;;2.85;2.20;;;;;;;4.81;66.01;97103.06;6070328;23;20203;-87
2020/12/27 09:50:24;;;;;;;2.85;2.00;;;;;;;4.90;65.70;97107.72;6053897;23;20716;-86
2020/12/27 09:52:50;;;;;;;2.90;1.85;;;;;;;5.05;65.21;97081.72;6096709;23;20517;-87
2020/12/27 09:55:16;;;;;;;3.47;2.25;;;;;;;5.34;65.46;97065.22;6050055;23;20210;-87
2020/12/27 09:57:42;;;;;;;2.97;2.05;;;;;;;5.17;64.47;97052.34;6049431;23;20219;-86
2020/12/27 10:00:09;;;;;;;2.35;2.10;;;;;;;5.28;65.16;97054.19;6075338;23;20203;-86
2020/12/27 10:02:36;;;;;;;2.35;2.15;;;;;;;5.45;66.27;97051.91;6049061;23;20207;-87
2020/12/27 10:05:07;;;;;;;2.88;1.55;;;;;;;5.29;65.39;97037.22;6053532;23;20207;-86
2020/12/27 10:07:34;;;;;;;3.10;2.00;;;;;;;5.33;65.10;97031.53;6074386;23;20218;-87
2020/12/27 10:10:00;;;;;;;2.40;1.92;;;;;;;5.47;65.64;97020.66;6049934;23;20290;-87
2020/12/27 10:12:26;;;;;;;1.90;1.70;;;;;;;5.56;63.90;97024.41;6073482;23;20225;-87
2020/12/27 10:14:52;;;;;;;1.85;1.63;;;;;;;5.24;65.17;97015.41;6098310;23;20207;-86
2020/12/27 10:17:19;;;;;;;2.63;2.13;;;;;;;5.29;64.52;97016.78;6070366;23;20215;-86
2020/12/27 10:19:45;;;;;;;2.25;1.80;;;;;;;5.27;64.38;97009.84;6077696;23;20571;-86
2020/12/27 10:22:11;;;;;;;2.40;1.90;;;;;;;5.40;64.77;97006.09;6083317;23;20191;-86
2020/12/27 10:24:37;;;;;;;3.05;2.10;;;;;;;5.62;64.27;97000.78;6105472;23;20211;-85
2020/12/27 10:27:10;;;;;;;4.82;2.20;;;;;;;5.29;64.15;96983.94;6075213;23;20211;-86
2020/12/27 10:29:37;;;;;;;2.75;2.22;;;;;;;5.32;64.29;96967.72;6078475;23;20233;-86
2020/12/27 10:32:06;;;;;;;1.95;1.80;;;;;;;5.40;64.92;96958.13;6078850;23;20178;-86
2020/12/27 10:34:34;;;;;;;2.75;1.90;;;;;;;5.40;63.65;96942.16;6052300;23;20256;-86
2020/12/27 10:37:02;;;;;;;3.47;2.10;;;;;;;5.50;66.29;96921.81;6079253;23;20229;-86
2020/12/27 10:39:29;;;;;;;1.98;1.80;;;;;;;5.63;64.02;96925.16;6078464;23;20660;-86
2020/12/27 10:41:56;;;;;;;4.60;2.10;;;;;;;5.56;64.72;96923.13;6054362;23;20226;-88
2020/12/27 10:44:31;;;;;;;2.75;2.30;;;;;;;5.48;62.99;96912.22;6053377;23;20320;-86
2020/12/27 10:46:58;;;;;;;2.70;2.03;;;;;;;5.33;66.35;96900.97;6058472;23;20191;-85
2020/12/27 10:49:25;;;;;;;1.88;1.63;;;;;;;5.33;66.70;96898.31;6065130;23;20549;-86
2020/12/27 10:51:53;;;;;;;2.28;2.08;;;;;;;5.45;64.12;96885.84;6067614;23;20271;-86
2020/12/27 10:54:20;;;;;;;2.25;1.92;;;;;;;5.42;65.20;96870.09;6093847;23;20191;-86
2020/12/27 10:56:47;;;;;;;3.85;2.20;;;;;;;5.53;64.59;96872.75;6070344;23;20242;-87
2020/12/27 10:59:14;;;;;;;2.30;1.85;;;;;;;5.19;64.14;96866.59;6064332;23;20283;-85
2020/12/27 11:01:48;;;;;;;2.00;1.80;;;;;;;5.28;64.96;96849.03;6070841;23;20171;-84
2020/12/27 11:04:15;;;;;;;1.90;1.65;;;;;;;4.86;65.05;96844.47;6073192;23;20210;-84
2020/12/27 11:06:42;;;;;;;2.90;2.05;;;;;;;4.83;66.18;96839.41;6092610;23;20239;-86
2020/12/27 11:09:10;;;;;;;4.55;2.30;;;;;;;4.82;65.75;96822.56;6057701;23;20211;-85
2020/12/27 11:11:37;;;;;;;2.50;2.10;;;;;;;4.91;65.02;96813.88;6083451;23;20207;-87
2020/12/27 11:14:05;;;;;;;3.15;2.20;;;;;;;5.13;65.34;96805.00;6079140;23;20178;-85
2020/12/27 11:16:31;;;;;;;3.15;1.92;;;;;;;5.14;65.95;96812.84;6083655;23;20197;-86
2020/12/27 11:18:59;;;;;;;2.15;1.70;;;;;;;5.07;64.68;96809.00;6082516;23;20211;-86
2020/12/27 11:21:25;;;;;;;2.90;2.22;;;;;;;5.09;64.56;96796.41;6086527;23;20191;-85
2020/12/27 11:23:52;;;;;;;2.70;2.42;;;;;;;4.84;64.77;96778.06;6064481;23;20246;-85
2020/12/27 11:26:19;;;;;;;2.83;2.00;;;;;;;4.89;64.80;96780.34;6050961;23;20214;-86
2020/12/27 11:28:46;;;;;;;2.30;2.10;;;;;;;4.71;65.20;96766.69;6084948;23;20268;-86
2020/12/27 11:31:17;;;;;;;2.00;1.80;;;;;;;4.85;65.11;96747.81;6059756;23;20211;-86
2020/12/27 11:33:48;;;;;;;2.97;2.35;;;;;;;4.93;66.02;96739.22;6056059;23;20285;-86
2020/12/27 11:36:14;;;;;;;2.72;2.20;;;;;;;4.65;64.83;96735.25;6077272;23;20215;-86
2020/12/27 11:38:42;;;;;;;2.50;2.30;;;;;;;4.82;64.61;96732.06;6066568;23;20272;-86
2020/12/27 11:41:13;;;;;;;3.28;1.73;;;;;;;4.92;64.37;96716.19;6066438;23;20203;-85
2020/12/27 11:43:43;;;;;;;3.05;2.10;;;;;;;4.80;66.80;96706.56;6071781;23;20193;-85
2020/12/27 11:46:10;;;;;;;3.80;2.10;;;;;;;4.70;65.82;96693.16;6114207;23;20191;-86
2020/12/27 11:48:37;;;;;;;3.67;2.40;;;;;;;4.84;65.38;96686.69;6071847;23;20251;-84
2020/12/27 11:51:03;;;;;;;2.58;2.05;;;;;;;4.73;64.86;96679.59;6052193;23;20668;-86
2020/12/27 11:53:29;;;;;;;1.98;1.80;;;;;;;4.49;65.46;96678.91;6058285;23;20207;-86
2020/12/27 11:55:55;;;;;;;2.38;2.00;;;;;;;4.77;66.75;96665.06;6076860;23;20166;-81
2020/12/27 11:58:22;;;;;;;2.63;2.17;;;;;;;4.85;64.92;96662.63;6091663;23;20160;-82
2020/12/27 12:00:48;;;;;;;3.60;2.30;;;;;;;4.80;64.75;96643.50;6115673;23;20203;-83
2020/12/27 12:03:14;;;;;;;3.65;1.77;;;;;;;4.81;65.23;96629.22;6063865;23;20195;-84
2020/12/27 12:05:41;;;;;;;2.30;2.10;;;;;;;4.88;65.47;96610.94;6066083;23;20243;-83
2020/12/27 12:08:07;;;;;;;2.50;2.28;;;;;;;4.87;64.14;96615.41;6106203;23;20412;-85
2020/12/27 12:10:33;;;;;;;2.67;2.47;;;;;;;4.87;65.44;96606.59;6094604;23;20175;-83
2020/12/27 12:12:59;;;;;;;2.97;2.10;;;;;;;4.92;64.94;96594.59;6064863;23;20212;-85
2020/12/27 12:15:27;;;;;;;2.50;1.95;;;;;;;4.85;64.41;96600.53;6068835;23;20187;-82